< < Back
Terminal Aerodrome Forecast


Current Version              Previous Versions:   1  2  3  4  5  6  7  8  9  

Terminal Aerodrome Forecast

457
FTUS42 KFFC 091120
TAFCSG
TAF
KCSG 091120Z 0912/1012 28011G19KT P6SM SCT035 BKN050
     FM091500 30012G23KT P6SM BKN035
     FM100200 30010KT P6SM SCT040 BKN100=

Latest METAR

696
SAUS70 KWBC 101000
MTRCSG
METAR KCSG 100951Z AUTO 29007KT 10SM BKN037 M03/M09 A3013 RMK AO2 SLP205
T10281089


USA.gov is the U.S. government's official web portal to all federal, state and local government web resources and services.